sensor_id;sensor_type;location;lat;lon;timestamp;P1;durP1;ratioP1;P2;durP2;ratioP2
18623;SDS011;9441;51.420;7.036;2023-02-19T00:00:09;55.13;;;20.37;;
18623;SDS011;9441;51.420;7.036;2023-02-19T00:01:14;53.50;;;21.33;;
18623;SDS011;9441;51.420;7.036;2023-02-19T00:02:16;64.07;;;22.70;;
18623;SDS011;9441;51.420;7.036;2023-02-19T00:03:18;62.77;;;24.37;;
18623;SDS011;9441;51.420;7.036;2023-02-19T00:04:21;58.07;;;22.50;;
18623;SDS011;9441;51.420;7.036;2023-02-19T00:05:23;64.27;;;24.07;;
18623;SDS011;9441;51.420;7.036;2023-02-19T00:06:25;62.10;;;24.00;;
18623;SDS011;9441;51.420;7.036;2023-02-19T00:07:28;62.77;;;24.93;;
18623;SDS011;9441;51.420;7.036;2023-02-19T00:08:30;63.00;;;25.43;;
18623;SDS011;9441;51.420;7.036;2023-02-19T00:09:32;66.60;;;24.20;;
18623;SDS011;9441;51.420;7.036;2023-02-19T00:10:34;67.10;;;24.43;;
18623;SDS011;9441;51.420;7.036;2023-02-19T00:11:36;60.80;;;24.60;;
18623;SDS011;9441;51.420;7.036;2023-02-19T00:12:38;64.20;;;23.57;;
18623;SDS011;9441;51.420;7.036;2023-02-19T00:13:40;57.80;;;23.03;;
18623;SDS011;9441;51.420;7.036;2023-02-19T01:45:58;96.67;;;33.47;;
18623;SDS011;9441;51.420;7.036;2023-02-19T02:38:07;82.50;;;24.20;;
18623;SDS011;9441;51.420;7.036;2023-02-19T02:42:37;91.17;;;25.47;;
18623;SDS011;9441;51.420;7.036;2023-02-19T02:43:44;88.00;;;25.50;;
18623;SDS011;9441;51.420;7.036;2023-02-19T02:44:46;105.77;;;27.17;;
18623;SDS011;9441;51.420;7.036;2023-02-19T02:46:03;99.30;;;26.93;;
18623;SDS011;9441;51.420;7.036;2023-02-19T02:47:07;101.87;;;27.83;;
18623;SDS011;9441;51.420;7.036;2023-02-19T02:48:32;101.03;;;25.17;;
18623;SDS011;9441;51.420;7.036;2023-02-19T02:49:37;85.80;;;25.47;;
18623;SDS011;9441;51.420;7.036;2023-02-19T02:51:01;102.20;;;26.13;;
18623;SDS011;9441;51.420;7.036;2023-02-19T02:52:11;88.90;;;25.00;;
18623;SDS011;9441;51.420;7.036;2023-02-19T02:53:38;87.07;;;24.37;;
18623;SDS011;9441;51.420;7.036;2023-02-19T02:55:00;94.27;;;25.30;;
18623;SDS011;9441;51.420;7.036;2023-02-19T02:56:06;94.03;;;26.13;;
18623;SDS011;9441;51.420;7.036;2023-02-19T02:57:09;94.80;;;26.27;;
18623;SDS011;9441;51.420;7.036;2023-02-19T02:58:19;85.10;;;23.70;;
18623;SDS011;9441;51.420;7.036;2023-02-19T02:59:26;90.43;;;24.63;;
18623;SDS011;9441;51.420;7.036;2023-02-19T03:00:30;88.00;;;25.30;;
18623;SDS011;9441;51.420;7.036;2023-02-19T03:01:57;87.33;;;23.67;;
18623;SDS011;9441;51.420;7.036;2023-02-19T03:03:13;86.00;;;24.83;;
18623;SDS011;9441;51.420;7.036;2023-02-19T03:04:19;90.67;;;25.27;;
18623;SDS011;9441;51.420;7.036;2023-02-19T03:05:25;95.53;;;25.73;;
18623;SDS011;9441;51.420;7.036;2023-02-19T03:06:46;92.50;;;23.63;;
18623;SDS011;9441;51.420;7.036;2023-02-19T03:07:50;84.23;;;24.33;;
18623;SDS011;9441;51.420;7.036;2023-02-19T03:08:55;86.17;;;25.70;;
18623;SDS011;9441;51.420;7.036;2023-02-19T03:09:58;89.17;;;25.07;;
18623;SDS011;9441;51.420;7.036;2023-02-19T03:11:01;82.30;;;23.60;;
18623;SDS011;9441;51.420;7.036;2023-02-19T03:12:24;92.30;;;23.80;;
18623;SDS011;9441;51.420;7.036;2023-02-19T03:13:45;96.03;;;23.83;;
18623;SDS011;9441;51.420;7.036;2023-02-19T03:15:06;85.90;;;23.97;;
18623;SDS011;9441;51.420;7.036;2023-02-19T03:16:28;83.33;;;23.77;;
18623;SDS011;9441;51.420;7.036;2023-02-19T03:17:53;83.93;;;22.43;;
18623;SDS011;9441;51.420;7.036;2023-02-19T03:19:15;79.73;;;22.70;;
18623;SDS011;9441;51.420;7.036;2023-02-19T03:20:24;84.77;;;22.37;;
18623;SDS011;9441;51.420;7.036;2023-02-19T03:21:27;72.23;;;22.57;;
18623;SDS011;9441;51.420;7.036;2023-02-19T03:22:30;73.30;;;21.20;;
18623;SDS011;9441;51.420;7.036;2023-02-19T03:23:33;81.20;;;22.63;;
18623;SDS011;9441;51.420;7.036;2023-02-19T03:24:55;85.20;;;23.97;;
18623;SDS011;9441;51.420;7.036;2023-02-19T03:26:16;79.77;;;22.50;;
18623;SDS011;9441;51.420;7.036;2023-02-19T03:27:25;90.10;;;24.00;;
18623;SDS011;9441;51.420;7.036;2023-02-19T03:28:29;92.53;;;24.13;;
18623;SDS011;9441;51.420;7.036;2023-02-19T03:29:47;73.77;;;21.90;;
18623;SDS011;9441;51.420;7.036;2023-02-19T03:30:51;81.17;;;22.60;;
18623;SDS011;9441;51.420;7.036;2023-02-19T03:31:55;69.00;;;21.13;;
18623;SDS011;9441;51.420;7.036;2023-02-19T03:33:02;81.63;;;22.57;;
18623;SDS011;9441;51.420;7.036;2023-02-19T03:34:08;73.93;;;21.47;;
18623;SDS011;9441;51.420;7.036;2023-02-19T03:35:12;68.57;;;20.33;;
18623;SDS011;9441;51.420;7.036;2023-02-19T03:36:18;79.07;;;20.70;;
18623;SDS011;9441;51.420;7.036;2023-02-19T03:37:25;77.90;;;21.87;;
18623;SDS011;9441;51.420;7.036;2023-02-19T03:38:35;71.83;;;22.17;;
18623;SDS011;9441;51.420;7.036;2023-02-19T03:39:37;74.63;;;20.70;;
18623;SDS011;9441;51.420;7.036;2023-02-19T03:40:50;77.67;;;21.63;;
18623;SDS011;9441;51.420;7.036;2023-02-19T03:41:55;72.60;;;21.50;;
18623;SDS011;9441;51.420;7.036;2023-02-19T03:43:00;71.73;;;21.87;;
18623;SDS011;9441;51.420;7.036;2023-02-19T03:44:06;80.87;;;22.17;;
18623;SDS011;9441;51.420;7.036;2023-02-19T03:45:13;68.00;;;20.40;;
18623;SDS011;9441;51.420;7.036;2023-02-19T03:46:20;73.67;;;20.67;;
18623;SDS011;9441;51.420;7.036;2023-02-19T03:47:25;77.00;;;21.77;;
18623;SDS011;9441;51.420;7.036;2023-02-19T03:48:32;72.17;;;21.53;;
18623;SDS011;9441;51.420;7.036;2023-02-19T03:49:38;71.43;;;20.07;;
18623;SDS011;9441;51.420;7.036;2023-02-19T03:50:42;79.33;;;20.97;;
18623;SDS011;9441;51.420;7.036;2023-02-19T03:51:49;66.77;;;19.67;;
18623;SDS011;9441;51.420;7.036;2023-02-19T03:52:52;71.23;;;20.17;;
18623;SDS011;9441;51.420;7.036;2023-02-19T03:54:01;70.07;;;20.17;;
18623;SDS011;9441;51.420;7.036;2023-02-19T03:55:05;65.43;;;20.20;;
18623;SDS011;9441;51.420;7.036;2023-02-19T03:56:10;65.40;;;19.70;;
18623;SDS011;9441;51.420;7.036;2023-02-19T03:57:15;57.60;;;19.10;;
18623;SDS011;9441;51.420;7.036;2023-02-19T03:58:20;57.30;;;19.23;;
18623;SDS011;9441;51.420;7.036;2023-02-19T03:59:25;65.93;;;19.20;;
18623;SDS011;9441;51.420;7.036;2023-02-19T04:00:30;59.53;;;18.73;;
18623;SDS011;9441;51.420;7.036;2023-02-19T04:01:34;66.47;;;19.50;;
18623;SDS011;9441;51.420;7.036;2023-02-19T04:02:40;64.80;;;18.53;;
18623;SDS011;9441;51.420;7.036;2023-02-19T04:03:44;59.37;;;17.93;;
18623;SDS011;9441;51.420;7.036;2023-02-19T04:04:50;58.17;;;18.40;;
18623;SDS011;9441;51.420;7.036;2023-02-19T04:05:54;59.37;;;18.90;;
18623;SDS011;9441;51.420;7.036;2023-02-19T04:07:02;61.30;;;18.57;;
18623;SDS011;9441;51.420;7.036;2023-02-19T04:08:07;59.60;;;18.20;;
18623;SDS011;9441;51.420;7.036;2023-02-19T04:09:16;65.80;;;18.67;;
18623;SDS011;9441;51.420;7.036;2023-02-19T04:10:22;64.20;;;17.57;;
18623;SDS011;9441;51.420;7.036;2023-02-19T04:11:26;57.73;;;18.67;;
18623;SDS011;9441;51.420;7.036;2023-02-19T04:12:34;58.80;;;18.63;;
18623;SDS011;9441;51.420;7.036;2023-02-19T04:13:39;62.60;;;18.33;;
18623;SDS011;9441;51.420;7.036;2023-02-19T04:14:43;53.10;;;17.17;;
18623;SDS011;9441;51.420;7.036;2023-02-19T04:15:47;50.03;;;16.87;;
18623;SDS011;9441;51.420;7.036;2023-02-19T04:16:51;49.83;;;16.80;;
18623;SDS011;9441;51.420;7.036;2023-02-19T04:17:56;52.93;;;17.87;;
18623;SDS011;9441;51.420;7.036;2023-02-19T04:19:01;53.27;;;17.87;;
18623;SDS011;9441;51.420;7.036;2023-02-19T04:20:06;54.07;;;16.93;;
18623;SDS011;9441;51.420;7.036;2023-02-19T04:21:08;51.97;;;16.67;;
18623;SDS011;9441;51.420;7.036;2023-02-19T04:22:12;56.17;;;17.90;;
18623;SDS011;9441;51.420;7.036;2023-02-19T04:23:16;51.97;;;17.17;;
18623;SDS011;9441;51.420;7.036;2023-02-19T04:24:21;51.60;;;16.57;;
18623;SDS011;9441;51.420;7.036;2023-02-19T04:25:23;60.90;;;18.03;;
18623;SDS011;9441;51.420;7.036;2023-02-19T04:26:26;52.33;;;16.97;;
18623;SDS011;9441;51.420;7.036;2023-02-19T04:27:28;60.87;;;17.53;;
18623;SDS011;9441;51.420;7.036;2023-02-19T04:28:30;61.23;;;17.63;;
18623;SDS011;9441;51.420;7.036;2023-02-19T04:29:32;60.03;;;17.30;;
18623;SDS011;9441;51.420;7.036;2023-02-19T04:30:34;52.53;;;17.90;;
18623;SDS011;9441;51.420;7.036;2023-02-19T04:31:35;63.80;;;17.43;;
18623;SDS011;9441;51.420;7.036;2023-02-19T04:32:38;52.63;;;17.17;;
18623;SDS011;9441;51.420;7.036;2023-02-19T04:33:40;57.17;;;17.90;;
18623;SDS011;9441;51.420;7.036;2023-02-19T04:34:42;55.17;;;16.33;;
18623;SDS011;9441;51.420;7.036;2023-02-19T04:35:44;57.87;;;17.67;;
18623;SDS011;9441;51.420;7.036;2023-02-19T04:36:46;57.87;;;17.80;;
18623;SDS011;9441;51.420;7.036;2023-02-19T04:37:50;59.27;;;16.83;;
18623;SDS011;9441;51.420;7.036;2023-02-19T04:38:51;53.27;;;17.53;;
18623;SDS011;9441;51.420;7.036;2023-02-19T04:39:53;51.47;;;16.37;;
18623;SDS011;9441;51.420;7.036;2023-02-19T04:40:55;61.77;;;17.37;;
18623;SDS011;9441;51.420;7.036;2023-02-19T04:41:57;57.53;;;17.23;;
18623;SDS011;9441;51.420;7.036;2023-02-19T04:42:58;61.33;;;17.37;;
18623;SDS011;9441;51.420;7.036;2023-02-19T04:44:01;61.30;;;16.77;;
18623;SDS011;9441;51.420;7.036;2023-02-19T04:45:02;54.33;;;16.53;;
18623;SDS011;9441;51.420;7.036;2023-02-19T04:46:05;42.23;;;13.43;;
18623;SDS011;9441;51.420;7.036;2023-02-19T04:47:06;48.37;;;15.67;;
18623;SDS011;9441;51.420;7.036;2023-02-19T04:48:08;52.63;;;16.90;;
18623;SDS011;9441;51.420;7.036;2023-02-19T04:49:10;43.53;;;14.70;;
18623;SDS011;9441;51.420;7.036;2023-02-19T04:50:12;53.47;;;16.00;;
18623;SDS011;9441;51.420;7.036;2023-02-19T04:51:13;42.93;;;15.43;;
18623;SDS011;9441;51.420;7.036;2023-02-19T04:52:16;55.07;;;16.03;;
18623;SDS011;9441;51.420;7.036;2023-02-19T04:53:19;44.87;;;16.10;;
18623;SDS011;9441;51.420;7.036;2023-02-19T04:54:21;46.77;;;16.50;;
18623;SDS011;9441;51.420;7.036;2023-02-19T04:55:22;46.93;;;16.73;;
18623;SDS011;9441;51.420;7.036;2023-02-19T04:56:25;46.73;;;15.47;;
18623;SDS011;9441;51.420;7.036;2023-02-19T04:57:26;51.07;;;15.60;;
18623;SDS011;9441;51.420;7.036;2023-02-19T04:58:29;54.90;;;16.30;;
18623;SDS011;9441;51.420;7.036;2023-02-19T04:59:31;39.70;;;15.33;;
18623;SDS011;9441;51.420;7.036;2023-02-19T05:00:33;52.60;;;15.43;;
18623;SDS011;9441;51.420;7.036;2023-02-19T05:01:34;46.97;;;15.27;;
18623;SDS011;9441;51.420;7.036;2023-02-19T05:02:37;45.77;;;15.83;;
18623;SDS011;9441;51.420;7.036;2023-02-19T05:03:38;51.37;;;15.70;;
18623;SDS011;9441;51.420;7.036;2023-02-19T05:04:41;47.73;;;15.43;;
18623;SDS011;9441;51.420;7.036;2023-02-19T05:05:42;53.20;;;15.23;;
18623;SDS011;9441;51.420;7.036;2023-02-19T05:06:44;52.20;;;16.13;;
18623;SDS011;9441;51.420;7.036;2023-02-19T05:07:46;52.07;;;16.50;;
18623;SDS011;9441;51.420;7.036;2023-02-19T05:08:49;52.70;;;15.60;;
18623;SDS011;9441;51.420;7.036;2023-02-19T05:09:51;54.30;;;16.03;;
18623;SDS011;9441;51.420;7.036;2023-02-19T05:10:55;58.60;;;16.17;;
18623;SDS011;9441;51.420;7.036;2023-02-19T05:11:57;45.07;;;15.80;;
18623;SDS011;9441;51.420;7.036;2023-02-19T05:12:59;47.30;;;15.87;;
18623;SDS011;9441;51.420;7.036;2023-02-19T05:14:01;55.20;;;16.70;;
18623;SDS011;9441;51.420;7.036;2023-02-19T05:15:03;52.10;;;16.37;;
18623;SDS011;9441;51.420;7.036;2023-02-19T05:16:05;55.90;;;17.60;;
18623;SDS011;9441;51.420;7.036;2023-02-19T05:17:08;52.57;;;17.40;;
18623;SDS011;9441;51.420;7.036;2023-02-19T05:18:10;54.23;;;15.83;;
18623;SDS011;9441;51.420;7.036;2023-02-19T05:19:12;41.83;;;13.93;;
18623;SDS011;9441;51.420;7.036;2023-02-19T05:20:14;48.20;;;16.17;;
18623;SDS011;9441;51.420;7.036;2023-02-19T05:21:16;49.57;;;16.77;;
18623;SDS011;9441;51.420;7.036;2023-02-19T05:22:17;54.90;;;16.47;;
18623;SDS011;9441;51.420;7.036;2023-02-19T05:23:20;50.73;;;17.03;;
18623;SDS011;9441;51.420;7.036;2023-02-19T05:24:22;51.47;;;17.67;;
18623;SDS011;9441;51.420;7.036;2023-02-19T05:25:26;52.10;;;17.17;;
18623;SDS011;9441;51.420;7.036;2023-02-19T05:26:28;53.10;;;16.80;;
18623;SDS011;9441;51.420;7.036;2023-02-19T05:27:30;61.33;;;16.73;;
18623;SDS011;9441;51.420;7.036;2023-02-19T05:28:32;58.90;;;17.13;;
18623;SDS011;9441;51.420;7.036;2023-02-19T05:29:34;56.10;;;16.63;;
18623;SDS011;9441;51.420;7.036;2023-02-19T05:30:35;55.87;;;17.30;;
18623;SDS011;9441;51.420;7.036;2023-02-19T05:31:38;55.17;;;17.27;;
18623;SDS011;9441;51.420;7.036;2023-02-19T05:32:39;57.53;;;17.27;;
18623;SDS011;9441;51.420;7.036;2023-02-19T05:33:41;47.37;;;17.03;;
18623;SDS011;9441;51.420;7.036;2023-02-19T05:34:43;59.00;;;17.77;;
18623;SDS011;9441;51.420;7.036;2023-02-19T05:35:46;50.70;;;17.03;;
18623;SDS011;9441;51.420;7.036;2023-02-19T05:36:48;53.50;;;17.00;;
18623;SDS011;9441;51.420;7.036;2023-02-19T05:37:50;53.80;;;17.97;;
18623;SDS011;9441;51.420;7.036;2023-02-19T05:38:51;56.90;;;18.00;;
18623;SDS011;9441;51.420;7.036;2023-02-19T05:39:55;53.90;;;16.93;;
18623;SDS011;9441;51.420;7.036;2023-02-19T05:41:05;58.27;;;17.70;;
18623;SDS011;9441;51.420;7.036;2023-02-19T05:42:07;49.17;;;16.40;;
18623;SDS011;9441;51.420;7.036;2023-02-19T05:43:09;56.13;;;17.87;;
18623;SDS011;9441;51.420;7.036;2023-02-19T05:44:11;65.33;;;18.13;;
18623;SDS011;9441;51.420;7.036;2023-02-19T05:45:12;57.03;;;17.67;;
18623;SDS011;9441;51.420;7.036;2023-02-19T05:46:16;54.00;;;17.03;;
18623;SDS011;9441;51.420;7.036;2023-02-19T05:47:18;60.03;;;17.57;;
18623;SDS011;9441;51.420;7.036;2023-02-19T05:48:21;64.37;;;17.83;;
18623;SDS011;9441;51.420;7.036;2023-02-19T05:49:22;55.80;;;16.57;;
18623;SDS011;9441;51.420;7.036;2023-02-19T05:50:25;51.83;;;16.80;;
18623;SDS011;9441;51.420;7.036;2023-02-19T05:51:26;59.83;;;18.13;;
18623;SDS011;9441;51.420;7.036;2023-02-19T05:52:29;45.80;;;16.63;;
18623;SDS011;9441;51.420;7.036;2023-02-19T05:53:30;45.93;;;16.53;;
18623;SDS011;9441;51.420;7.036;2023-02-19T05:54:32;54.10;;;16.60;;
18623;SDS011;9441;51.420;7.036;2023-02-19T05:55:35;50.73;;;16.07;;
18623;SDS011;9441;51.420;7.036;2023-02-19T05:56:38;47.27;;;16.90;;
18623;SDS011;9441;51.420;7.036;2023-02-19T05:57:39;65.97;;;17.00;;
18623;SDS011;9441;51.420;7.036;2023-02-19T05:58:42;47.67;;;16.33;;
18623;SDS011;9441;51.420;7.036;2023-02-19T05:59:43;43.63;;;15.87;;
18623;SDS011;9441;51.420;7.036;2023-02-19T06:00:45;53.83;;;17.07;;
18623;SDS011;9441;51.420;7.036;2023-02-19T06:01:47;40.33;;;15.23;;
18623;SDS011;9441;51.420;7.036;2023-02-19T06:02:49;56.53;;;16.70;;
18623;SDS011;9441;51.420;7.036;2023-02-19T06:03:51;51.03;;;16.40;;
18623;SDS011;9441;51.420;7.036;2023-02-19T06:04:53;54.93;;;17.30;;
18623;SDS011;9441;51.420;7.036;2023-02-19T06:05:55;50.17;;;17.27;;
18623;SDS011;9441;51.420;7.036;2023-02-19T06:06:57;46.07;;;15.67;;
18623;SDS011;9441;51.420;7.036;2023-02-19T06:07:59;44.97;;;15.10;;
18623;SDS011;9441;51.420;7.036;2023-02-19T06:09:01;39.13;;;15.63;;
18623;SDS011;9441;51.420;7.036;2023-02-19T06:10:03;51.17;;;16.50;;
18623;SDS011;9441;51.420;7.036;2023-02-19T06:11:06;41.60;;;15.43;;
18623;SDS011;9441;51.420;7.036;2023-02-19T06:12:09;47.83;;;15.97;;
18623;SDS011;9441;51.420;7.036;2023-02-19T06:13:11;46.07;;;16.13;;
18623;SDS011;9441;51.420;7.036;2023-02-19T06:14:12;39.67;;;15.17;;
18623;SDS011;9441;51.420;7.036;2023-02-19T06:15:15;47.03;;;15.80;;
18623;SDS011;9441;51.420;7.036;2023-02-19T06:16:16;51.57;;;16.43;;
18623;SDS011;9441;51.420;7.036;2023-02-19T06:17:19;41.27;;;15.23;;
18623;SDS011;9441;51.420;7.036;2023-02-19T06:18:20;48.97;;;15.83;;
18623;SDS011;9441;51.420;7.036;2023-02-19T06:19:22;45.27;;;15.17;;
18623;SDS011;9441;51.420;7.036;2023-02-19T06:20:24;52.33;;;15.27;;
18623;SDS011;9441;51.420;7.036;2023-02-19T06:21:26;46.03;;;15.30;;
18623;SDS011;9441;51.420;7.036;2023-02-19T06:22:27;45.20;;;14.00;;
18623;SDS011;9441;51.420;7.036;2023-02-19T06:23:30;44.27;;;13.97;;
18623;SDS011;9441;51.420;7.036;2023-02-19T06:24:32;52.90;;;15.43;;
18623;SDS011;9441;51.420;7.036;2023-02-19T06:25:35;44.83;;;14.87;;
18623;SDS011;9441;51.420;7.036;2023-02-19T06:26:37;45.07;;;14.33;;
18623;SDS011;9441;51.420;7.036;2023-02-19T06:27:40;46.93;;;14.83;;
18623;SDS011;9441;51.420;7.036;2023-02-19T06:28:42;48.83;;;14.47;;
18623;SDS011;9441;51.420;7.036;2023-02-19T06:29:44;53.20;;;15.97;;
18623;SDS011;9441;51.420;7.036;2023-02-19T06:30:45;46.00;;;15.43;;
18623;SDS011;9441;51.420;7.036;2023-02-19T06:31:48;51.93;;;14.87;;
18623;SDS011;9441;51.420;7.036;2023-02-19T06:32:50;47.43;;;14.67;;
18623;SDS011;9441;51.420;7.036;2023-02-19T06:33:53;48.17;;;15.40;;
18623;SDS011;9441;51.420;7.036;2023-02-19T06:34:54;42.23;;;14.90;;
18623;SDS011;9441;51.420;7.036;2023-02-19T06:35:57;47.50;;;15.40;;
18623;SDS011;9441;51.420;7.036;2023-02-19T06:36:59;41.23;;;14.40;;
18623;SDS011;9441;51.420;7.036;2023-02-19T06:38:01;44.67;;;14.10;;
18623;SDS011;9441;51.420;7.036;2023-02-19T06:39:03;39.77;;;14.37;;
18623;SDS011;9441;51.420;7.036;2023-02-19T06:40:06;39.33;;;13.93;;
18623;SDS011;9441;51.420;7.036;2023-02-19T06:41:08;41.77;;;14.10;;
18623;SDS011;9441;51.420;7.036;2023-02-19T06:42:12;50.17;;;14.40;;
18623;SDS011;9441;51.420;7.036;2023-02-19T06:43:14;40.33;;;13.03;;
18623;SDS011;9441;51.420;7.036;2023-02-19T06:44:15;49.47;;;14.57;;
18623;SDS011;9441;51.420;7.036;2023-02-19T06:45:18;41.33;;;14.83;;
18623;SDS011;9441;51.420;7.036;2023-02-19T06:46:19;42.13;;;14.00;;
18623;SDS011;9441;51.420;7.036;2023-02-19T06:47:21;45.13;;;13.40;;
18623;SDS011;9441;51.420;7.036;2023-02-19T06:48:23;45.47;;;15.03;;
18623;SDS011;9441;51.420;7.036;2023-02-19T06:49:26;48.30;;;15.30;;
18623;SDS011;9441;51.420;7.036;2023-02-19T06:50:27;43.93;;;15.10;;
18623;SDS011;9441;51.420;7.036;2023-02-19T06:51:30;40.50;;;14.37;;
18623;SDS011;9441;51.420;7.036;2023-02-19T06:52:32;45.37;;;15.17;;
18623;SDS011;9441;51.420;7.036;2023-02-19T06:53:34;39.67;;;13.83;;
18623;SDS011;9441;51.420;7.036;2023-02-19T06:54:35;44.77;;;14.27;;
18623;SDS011;9441;51.420;7.036;2023-02-19T06:55:38;45.33;;;14.00;;
18623;SDS011;9441;51.420;7.036;2023-02-19T06:56:40;37.30;;;13.13;;
18623;SDS011;9441;51.420;7.036;2023-02-19T06:57:44;41.10;;;13.93;;
18623;SDS011;9441;51.420;7.036;2023-02-19T06:58:45;45.77;;;13.77;;
18623;SDS011;9441;51.420;7.036;2023-02-19T06:59:47;42.53;;;13.27;;
18623;SDS011;9441;51.420;7.036;2023-02-19T07:00:49;43.73;;;13.80;;
18623;SDS011;9441;51.420;7.036;2023-02-19T07:01:51;48.53;;;13.83;;
18623;SDS011;9441;51.420;7.036;2023-02-19T07:02:53;32.50;;;12.33;;
18623;SDS011;9441;51.420;7.036;2023-02-19T07:03:55;32.83;;;11.90;;
18623;SDS011;9441;51.420;7.036;2023-02-19T07:04:58;33.67;;;12.97;;
18623;SDS011;9441;51.420;7.036;2023-02-19T07:05:59;34.83;;;12.57;;
18623;SDS011;9441;51.420;7.036;2023-02-19T07:07:01;35.37;;;12.93;;
18623;SDS011;9441;51.420;7.036;2023-02-19T07:08:04;34.63;;;12.10;;
18623;SDS011;9441;51.420;7.036;2023-02-19T07:09:06;34.07;;;12.83;;
18623;SDS011;9441;51.420;7.036;2023-02-19T07:10:08;38.20;;;13.17;;
18623;SDS011;9441;51.420;7.036;2023-02-19T07:11:09;47.50;;;13.43;;
18623;SDS011;9441;51.420;7.036;2023-02-19T07:12:12;38.30;;;13.37;;
18623;SDS011;9441;51.420;7.036;2023-02-19T07:13:14;29.67;;;11.83;;
18623;SDS011;9441;51.420;7.036;2023-02-19T07:14:17;36.80;;;12.03;;
18623;SDS011;9441;51.420;7.036;2023-02-19T07:15:19;42.03;;;13.37;;
18623;SDS011;9441;51.420;7.036;2023-02-19T07:16:21;44.33;;;13.80;;
18623;SDS011;9441;51.420;7.036;2023-02-19T07:17:23;36.57;;;13.20;;
18623;SDS011;9441;51.420;7.036;2023-02-19T07:18:25;38.83;;;13.20;;
18623;SDS011;9441;51.420;7.036;2023-02-19T07:19:26;38.40;;;13.00;;
18623;SDS011;9441;51.420;7.036;2023-02-19T07:20:29;41.13;;;14.50;;
18623;SDS011;9441;51.420;7.036;2023-02-19T07:21:30;44.03;;;13.70;;
18623;SDS011;9441;51.420;7.036;2023-02-19T07:22:36;35.97;;;12.90;;
18623;SDS011;9441;51.420;7.036;2023-02-19T07:23:38;37.60;;;12.93;;
18623;SDS011;9441;51.420;7.036;2023-02-19T07:24:40;36.43;;;13.40;;
18623;SDS011;9441;51.420;7.036;2023-02-19T07:25:43;38.10;;;12.27;;
18623;SDS011;9441;51.420;7.036;2023-02-19T07:26:44;39.87;;;12.60;;
18623;SDS011;9441;51.420;7.036;2023-02-19T07:27:46;40.23;;;13.00;;
18623;SDS011;9441;51.420;7.036;2023-02-19T07:28:49;39.83;;;13.27;;
18623;SDS011;9441;51.420;7.036;2023-02-19T07:29:52;41.27;;;14.43;;
18623;SDS011;9441;51.420;7.036;2023-02-19T07:30:53;41.53;;;13.63;;
18623;SDS011;9441;51.420;7.036;2023-02-19T07:32:00;43.63;;;14.33;;
18623;SDS011;9441;51.420;7.036;2023-02-19T07:33:02;36.60;;;14.03;;
18623;SDS011;9441;51.420;7.036;2023-02-19T07:34:05;44.23;;;14.07;;
18623;SDS011;9441;51.420;7.036;2023-02-19T07:35:06;47.30;;;14.37;;
18623;SDS011;9441;51.420;7.036;2023-02-19T07:36:09;50.97;;;16.23;;
18623;SDS011;9441;51.420;7.036;2023-02-19T07:37:11;45.43;;;15.80;;
18623;SDS011;9441;51.420;7.036;2023-02-19T07:38:14;50.50;;;17.00;;
18623;SDS011;9441;51.420;7.036;2023-02-19T07:39:16;50.83;;;17.50;;
18623;SDS011;9441;51.420;7.036;2023-02-19T07:40:18;53.63;;;19.13;;
18623;SDS011;9441;51.420;7.036;2023-02-19T07:41:20;57.63;;;18.37;;
18623;SDS011;9441;51.420;7.036;2023-02-19T07:42:22;54.97;;;18.70;;
18623;SDS011;9441;51.420;7.036;2023-02-19T07:43:24;52.93;;;20.17;;
18623;SDS011;9441;51.420;7.036;2023-02-19T07:44:28;68.40;;;20.87;;
18623;SDS011;9441;51.420;7.036;2023-02-19T07:45:30;52.63;;;19.70;;
18623;SDS011;9441;51.420;7.036;2023-02-19T07:46:31;60.20;;;19.17;;
18623;SDS011;9441;51.420;7.036;2023-02-19T07:47:34;58.73;;;19.13;;
18623;SDS011;9441;51.420;7.036;2023-02-19T07:48:35;54.80;;;19.10;;
18623;SDS011;9441;51.420;7.036;2023-02-19T07:49:38;58.80;;;18.87;;
18623;SDS011;9441;51.420;7.036;2023-02-19T07:50:39;62.63;;;19.10;;
18623;SDS011;9441;51.420;7.036;2023-02-19T07:51:42;50.83;;;18.93;;
18623;SDS011;9441;51.420;7.036;2023-02-19T07:52:43;56.70;;;18.60;;
18623;SDS011;9441;51.420;7.036;2023-02-19T07:53:46;57.30;;;19.50;;
18623;SDS011;9441;51.420;7.036;2023-02-19T07:54:49;53.97;;;19.83;;
18623;SDS011;9441;51.420;7.036;2023-02-19T07:55:51;52.33;;;19.37;;
18623;SDS011;9441;51.420;7.036;2023-02-19T07:56:53;57.20;;;20.00;;
18623;SDS011;9441;51.420;7.036;2023-02-19T07:57:56;60.47;;;20.33;;
18623;SDS011;9441;51.420;7.036;2023-02-19T07:58:58;58.07;;;20.50;;
18623;SDS011;9441;51.420;7.036;2023-02-19T08:00:02;59.27;;;20.57;;
18623;SDS011;9441;51.420;7.036;2023-02-19T08:01:13;64.70;;;21.30;;
18623;SDS011;9441;51.420;7.036;2023-02-19T08:02:16;61.00;;;21.00;;
18623;SDS011;9441;51.420;7.036;2023-02-19T08:03:36;60.10;;;21.00;;
18623;SDS011;9441;51.420;7.036;2023-02-19T08:04:37;76.50;;;22.27;;
18623;SDS011;9441;51.420;7.036;2023-02-19T08:05:40;59.30;;;21.43;;
18623;SDS011;9441;51.420;7.036;2023-02-19T08:06:42;51.03;;;19.57;;
18623;SDS011;9441;51.420;7.036;2023-02-19T08:07:44;66.80;;;21.23;;
18623;SDS011;9441;51.420;7.036;2023-02-19T08:08:46;61.00;;;21.13;;
18623;SDS011;9441;51.420;7.036;2023-02-19T08:09:48;63.10;;;23.57;;
18623;SDS011;9441;51.420;7.036;2023-02-19T08:11:09;57.07;;;19.77;;
18623;SDS011;9441;51.420;7.036;2023-02-19T08:12:29;57.83;;;20.43;;
18623;SDS011;9441;51.420;7.036;2023-02-19T08:13:49;59.70;;;20.47;;
18623;SDS011;9441;51.420;7.036;2023-02-19T08:14:52;60.60;;;23.33;;
18623;SDS011;9441;51.420;7.036;2023-02-19T08:16:07;52.87;;;19.33;;
18623;SDS011;9441;51.420;7.036;2023-02-19T08:17:09;50.97;;;19.73;;
18623;SDS011;9441;51.420;7.036;2023-02-19T08:18:11;50.80;;;18.13;;
18623;SDS011;9441;51.420;7.036;2023-02-19T08:19:13;60.77;;;18.50;;
18623;SDS011;9441;51.420;7.036;2023-02-19T08:20:15;58.40;;;17.60;;
18623;SDS011;9441;51.420;7.036;2023-02-19T08:21:17;56.80;;;18.03;;
18623;SDS011;9441;51.420;7.036;2023-02-19T08:22:19;50.50;;;17.27;;
18623;SDS011;9441;51.420;7.036;2023-02-19T08:23:21;54.77;;;16.80;;
18623;SDS011;9441;51.420;7.036;2023-02-19T08:24:23;54.97;;;16.33;;
18623;SDS011;9441;51.420;7.036;2023-02-19T08:25:24;56.80;;;15.80;;
18623;SDS011;9441;51.420;7.036;2023-02-19T08:26:27;54.40;;;18.23;;
18623;SDS011;9441;51.420;7.036;2023-02-19T08:27:28;53.03;;;16.27;;
18623;SDS011;9441;51.420;7.036;2023-02-19T08:28:30;50.10;;;16.93;;
18623;SDS011;9441;51.420;7.036;2023-02-19T08:29:32;52.37;;;16.67;;
18623;SDS011;9441;51.420;7.036;2023-02-19T08:30:34;49.13;;;16.23;;
18623;SDS011;9441;51.420;7.036;2023-02-19T08:31:38;49.47;;;16.40;;
18623;SDS011;9441;51.420;7.036;2023-02-19T08:32:41;51.73;;;17.10;;
18623;SDS011;9441;51.420;7.036;2023-02-19T08:33:42;54.87;;;17.67;;
18623;SDS011;9441;51.420;7.036;2023-02-19T08:34:44;48.10;;;17.33;;
18623;SDS011;9441;51.420;7.036;2023-02-19T08:35:46;55.27;;;16.93;;
18623;SDS011;9441;51.420;7.036;2023-02-19T08:36:48;55.67;;;17.47;;
18623;SDS011;9441;51.420;7.036;2023-02-19T08:37:49;45.37;;;16.53;;
18623;SDS011;9441;51.420;7.036;2023-02-19T08:38:52;48.67;;;17.23;;
18623;SDS011;9441;51.420;7.036;2023-02-19T08:39:54;52.33;;;16.57;;
18623;SDS011;9441;51.420;7.036;2023-02-19T08:40:55;47.70;;;16.47;;
18623;SDS011;9441;51.420;7.036;2023-02-19T08:41:58;45.97;;;16.20;;
18623;SDS011;9441;51.420;7.036;2023-02-19T08:43:01;50.47;;;15.83;;
18623;SDS011;9441;51.420;7.036;2023-02-19T08:44:02;54.33;;;16.20;;
18623;SDS011;9441;51.420;7.036;2023-02-19T08:45:05;47.07;;;15.33;;